Marion, IN

8:46 PM EDT on May 29, 2015 (GMT -0400)
KB9CQZ Brinker Heights | | Change Station
CLOSE
Current Station
Personal Weather Station
Location: Marion, IN
Elevation: 890 ft
Nearby Weather Stations

Elev 890 ft 40.57 °N, 85.64 °W | Updated 7 seconds ago

Partly Cloudy
Partly Cloudy
79.7 °F
Feels Like 82 °F
N
2.0
Wind Variable Wind from West
Gusts 2.0 mph

Today
High -- | Low -- °F
--% Chance of Precip.
Yesterday
High -- | Low -- °F
Precip. -- in
6:15 AM 9:04 PM
Waxing Gibbous, 87% visible
Pressure 30.01 in
Visibility 7.0 miles
Clouds Clear
Heat Index 82 °F
Dew Point 66 °F
Humidity 63%
Rainfall 0.00 in
Snow Depth Not available.
UV 0.0 out of 12
Pollen 7.90 out of 12
Air Quality Not available.
Flu Activity No Activity
METAR KMZZ 300015Z AUTO 20013G17KT 7SM CLR 27/16 A3001 RMK AO2 T02680156

More Conditions Fewer Conditions

Pressure 30.01 in
Visibility 7.0 miles
Clouds Clear
Heat Index 82 °F
Dew Point 66 °F
Humidity 63%
Rainfall 0.00 in
Snow Depth Not available.
UV 0.0 out of 12
Pollen 7.90 out of 12
Air Quality Not available.
Flu Activity No Activity
METAR KMZZ 300015Z AUTO 20013G17KT 7SM CLR 27/16 A3001 RMK AO2 T02680156

More Conditions Fewer Conditions

10-Day Weather Forecast

Almanac

Astronomy

May. 29, 2015 Rise Set
Actual Time
Civil Twilight
Nautical Twilight
Astronomical Twilight
Moon
Length of Visible Light
Length of Day
Tomorrow will be .
, % of the Moon is Illuminated

Today's Extremes

State Highs State Lows

Community

WunderPhotos

Upload Photos

1,825,411 photos uploaded!

WunderBlogs® & News

Nearby

Air Quality

  Air Quality AQ Index Pollutant
Not available.

Snow Depth

Station Depth Elevation

Earthquake Activity

City Distance Mag. Time & Date
Minimum magnitude displayed is 2.5.

Coastal Water Temperatures

Place Temperature

Stations

Nearby Weather Stations

Station Location Temp. Windchill Dew Point Humidity Wind Precip. Elev Updated Type